Daretown, New Jersey
Current Conditions -  °F | °C
As of 4:54 AM on Sunday 25 Jan 2015 (Local Time) from KMIV Reporting Station
Clear Clear  
Wind Chill: 24°   Ceiling: Unl
Heat Index: 31°   Visibility: 10mi
Dew Point: 27°   Wind: 7mph
Humidity: 85%   Direction: 260°W
Pressure: 29.71"   Gusts: NA
Location:  39.5646°N, 75.1874°W
Report Text: KMIV 250954Z AUTO 26006KT 10SM CLR M01/M03 A2971 RMK AO2 SLP061 T10061028 $
Loading
Personal Weather Stations






























Interactive Weather Map New forecast layout! Learn more

10-Day Weather Forecast

Advertisements
Track Severe Weather on mobile